Time;durP1;ratioP1;P1;durP2;ratioP2;P2;SDS_P1;SDS_P2;PMS_P1;PMS_P2;Temp;Humidity;BMP_temperature;BMP_pressure;BME280_temperature;BME280_humidity;BME280_pressure;Samples;Min_cycle;Max_cycle;Signal;HPM_P1;HPM_P2
2023/12/05 00:00:51;;;;;;;11.05;9.00;;;8.20;96.70;;;;;;4804013;29;20130;-53
2023/12/05 00:03:19;;;;;;;10.98;8.68;;;8.20;96.70;;;;;;4787072;29;20062;-53
2023/12/05 00:05:49;;;;;;;10.43;8.10;;;8.20;96.70;;;;;;4789319;29;20086;-53
2023/12/05 00:08:18;;;;;;;9.73;8.38;;;8.20;96.70;;;;;;4791822;29;20429;-53
2023/12/05 00:10:49;;;;;;;11.07;9.00;;;8.20;96.70;;;;;;4816359;29;20047;-53
2023/12/05 00:13:17;;;;;;;9.18;8.15;;;8.20;96.70;;;;;;4808715;29;20054;-53
2023/12/05 00:15:46;;;;;;;10.07;7.78;;;8.20;96.70;;;;;;4791309;29;20042;-53
2023/12/05 00:18:15;;;;;;;10.93;8.32;;;8.20;96.70;;;;;;4791563;29;20544;-53
2023/12/05 00:20:45;;;;;;;11.65;8.02;;;8.20;96.70;;;;;;4817824;29;20081;-53
2023/12/05 00:23:16;;;;;;;9.18;7.22;;;8.30;96.70;;;;;;4834284;29;20065;-53
2023/12/05 00:25:44;;;;;;;7.65;6.88;;;8.30;96.70;;;;;;4801856;29;20078;-53
2023/12/05 00:28:13;;;;;;;8.50;7.55;;;8.30;96.70;;;;;;4806429;29;20117;-53
2023/12/05 00:30:42;;;;;;;8.63;6.63;;;8.30;96.70;;;;;;4791614;29;20475;-53
2023/12/05 00:33:10;;;;;;;8.75;6.53;;;8.30;96.70;;;;;;4812976;29;20072;-53
2023/12/05 00:35:41;;;;;;;8.00;6.20;;;8.30;96.70;;;;;;4813565;29;20062;-53
2023/12/05 00:38:11;;;;;;;9.07;6.30;;;8.30;96.70;;;;;;4821908;29;20046;-53
2023/12/05 00:40:42;;;;;;;9.88;6.40;;;8.30;96.70;;;;;;4794383;29;20062;-53
2023/12/05 00:43:10;;;;;;;8.55;6.70;;;8.30;96.70;;;;;;4793791;29;20064;-53
2023/12/05 00:45:40;;;;;;;9.50;7.00;;;8.40;96.70;;;;;;4792432;29;20050;-53
2023/12/05 00:48:08;;;;;;;9.70;6.35;;;8.40;96.70;;;;;;4821565;29;20058;-53
2023/12/05 00:50:38;;;;;;;8.00;6.20;;;8.40;96.70;;;;;;4804743;29;20064;-53
2023/12/05 00:53:13;;;;;;;8.43;6.43;;;8.40;96.70;;;;;;4787990;29;20061;-53
2023/12/05 00:55:43;;;;;;;8.02;6.32;;;8.40;96.70;;;;;;4799587;29;20137;-53
2023/12/05 00:58:15;;;;;;;7.45;6.10;;;8.40;96.70;;;;;;4797882;29;20065;-53
2023/12/05 01:00:44;;;;;;;8.32;6.05;;;8.40;96.70;;;;;;4821961;29;20679;-53
2023/12/05 01:03:14;;;;;;;6.85;5.47;;;8.40;96.70;;;;;;4806376;29;20595;-54
2023/12/05 01:05:47;;;;;;;10.30;6.07;;;8.50;96.70;;;;;;4804032;29;20054;-52
2023/12/05 01:08:17;;;;;;;6.85;5.50;;;8.50;96.70;;;;;;4804658;29;20046;-53
2023/12/05 01:10:49;;;;;;;8.52;5.82;;;8.50;96.70;;;;;;4787913;29;20550;-53
2023/12/05 01:13:18;;;;;;;8.10;5.65;;;8.50;96.70;;;;;;4801611;29;20066;-53
2023/12/05 01:15:48;;;;;;;8.43;5.75;;;8.50;96.70;;;;;;4788657;29;20062;-54
2023/12/05 01:18:20;;;;;;;8.23;5.45;;;8.50;96.70;;;;;;4796211;29;20597;-53
2023/12/05 01:20:48;;;;;;;7.20;5.47;;;8.50;96.70;;;;;;4789389;29;20418;-53
2023/12/05 01:23:19;;;;;;;8.02;5.75;;;8.50;96.70;;;;;;4790071;29;20058;-53
2023/12/05 01:25:50;;;;;;;6.35;5.10;;;8.50;96.70;;;;;;4794205;29;20052;-53
2023/12/05 01:28:18;;;;;;;6.65;5.10;;;8.50;96.70;;;;;;4804856;29;20090;-53
2023/12/05 01:30:50;;;;;;;7.13;5.13;;;8.50;96.70;;;;;;4805080;29;20050;-53
2023/12/05 01:33:23;;;;;;;7.32;5.47;;;8.60;96.70;;;;;;4805345;29;20058;-53
2023/12/05 01:35:51;;;;;;;7.03;5.45;;;8.60;96.70;;;;;;4796793;29;20054;-53
2023/12/05 01:38:20;;;;;;;7.45;5.07;;;8.60;96.70;;;;;;4804368;29;20133;-54
2023/12/05 01:40:50;;;;;;;6.82;5.43;;;8.60;96.70;;;;;;4805522;29;20120;-53
2023/12/05 01:43:18;;;;;;;6.38;5.20;;;8.60;96.70;;;;;;4789693;29;20137;-53
2023/12/05 01:45:47;;;;;;;7.57;5.15;;;8.60;96.70;;;;;;4794904;29;20095;-54
2023/12/05 01:48:16;;;;;;;7.72;5.50;;;8.60;96.70;;;;;;4816654;29;20065;-53
2023/12/05 01:50:48;;;;;;;6.13;5.38;;;8.60;96.70;;;;;;4805062;29;20527;-53
2023/12/05 01:53:17;;;;;;;7.40;5.18;;;8.60;96.70;;;;;;4801464;29;20077;-53
2023/12/05 01:55:47;;;;;;;6.07;5.05;;;8.60;96.70;;;;;;4805132;29;20089;-53
2023/12/05 01:58:18;;;;;;;7.30;5.53;;;8.60;96.70;;;;;;4823031;29;20058;-53
2023/12/05 02:00:47;;;;;;;8.05;5.13;;;8.60;96.70;;;;;;4836613;29;20053;-53
2023/12/05 02:03:16;;;;;;;7.60;5.20;;;8.60;96.70;;;;;;4837422;29;20042;-53
2023/12/05 02:05:48;;;;;;;7.28;4.82;;;8.60;96.70;;;;;;4823683;29;20045;-52
2023/12/05 02:08:21;;;;;;;7.05;4.82;;;8.60;96.70;;;;;;4821193;29;20053;-54
2023/12/05 02:10:50;;;;;;;6.43;5.10;;;8.70;96.70;;;;;;4821839;29;20054;-53
2023/12/05 02:13:21;;;;;;;5.38;4.55;;;8.70;96.70;;;;;;4820270;29;20081;-54
2023/12/05 02:15:58;;;;;;;6.43;4.70;;;8.70;96.70;;;;;;4807527;29;20058;-53
2023/12/05 02:18:31;;;;;;;6.95;5.18;;;8.70;96.70;;;;;;5474988;23;20061;-57
2023/12/05 02:21:09;;;;;;;6.38;4.45;;;8.70;96.70;;;;;;4896034;29;20398;-57
2023/12/05 02:24:01;;;;;;;5.68;4.45;;;8.60;96.70;;;;;;4882915;29;20429;-56
2023/12/05 02:26:42;;;;;;;6.80;4.65;;;8.70;96.70;;;;;;4885578;29;20120;-57
2023/12/05 02:29:12;;;;;;;6.60;4.25;;;8.70;96.70;;;;;;4884184;29;20048;-56
2023/12/05 02:31:41;;;;;;;4.95;3.80;;;8.70;96.70;;;;;;4897681;29;20080;-57
2023/12/05 02:34:10;;;;;;;5.95;4.97;;;8.70;96.70;;;;;;4867012;29;20056;-56
2023/12/05 02:36:49;;;;;;;7.45;4.95;;;8.80;96.70;;;;;;4889072;29;20623;-57
2023/12/05 02:39:25;;;;;;;15.32;5.78;;;8.80;96.70;;;;;;4885904;29;20541;-56
2023/12/05 02:41:56;;;;;;;7.78;5.00;;;8.80;96.70;;;;;;4885466;29;20135;-57
2023/12/05 02:44:40;;;;;;;6.45;4.50;;;8.80;96.70;;;;;;4881788;29;20059;-57
2023/12/05 02:47:11;;;;;;;7.40;5.13;;;8.80;96.70;;;;;;4882482;29;20418;-57
2023/12/05 02:49:40;;;;;;;7.72;4.68;;;8.80;96.70;;;;;;4893071;29;20562;-57
2023/12/05 02:52:11;;;;;;;7.30;4.40;;;8.80;96.70;;;;;;4882031;29;20037;-56
2023/12/05 02:54:44;;;;;;;7.20;3.92;;;8.80;96.70;;;;;;4881101;29;20056;-57
2023/12/05 02:57:13;;;;;;;6.75;4.80;;;8.80;96.70;;;;;;4885155;29;20060;-57
2023/12/05 02:59:43;;;;;;;5.90;4.20;;;8.90;96.70;;;;;;4882029;29;20048;-57
2023/12/05 03:02:12;;;;;;;5.05;3.75;;;8.80;96.70;;;;;;4866564;29;20536;-56
2023/12/05 03:04:43;;;;;;;6.47;4.20;;;8.90;96.70;;;;;;4882172;29;20644;-57
2023/12/05 03:07:12;;;;;;;4.95;3.90;;;8.90;96.70;;;;;;4888288;29;20447;-57
2023/12/05 03:09:41;;;;;;;5.40;3.80;;;8.90;96.70;;;;;;4878965;29;20057;-57
2023/12/05 03:12:10;;;;;;;4.65;3.35;;;8.90;96.70;;;;;;4866531;29;20423;-56
2023/12/05 03:14:39;;;;;;;5.18;3.70;;;8.90;96.70;;;;;;4866688;29;20523;-57
2023/12/05 03:17:09;;;;;;;4.43;3.63;;;8.90;96.70;;;;;;4881733;29;20068;-57
2023/12/05 03:19:38;;;;;;;5.90;3.42;;;9.00;96.70;;;;;;4887493;29;20873;-56
2023/12/05 03:22:07;;;;;;;4.32;3.15;;;9.00;96.70;;;;;;4873655;29;20047;-57
2023/12/05 03:24:36;;;;;;;4.85;3.33;;;9.00;96.70;;;;;;4887095;29;20063;-56
2023/12/05 03:27:06;;;;;;;5.05;3.28;;;9.00;96.70;;;;;;4899094;29;20511;-57
2023/12/05 03:29:35;;;;;;;5.45;3.67;;;9.00;96.70;;;;;;4900194;29;20414;-57
2023/12/05 03:32:04;;;;;;;5.18;3.20;;;9.00;96.70;;;;;;4884558;29;20499;-57
2023/12/05 03:34:37;;;;;;;4.88;3.30;;;9.00;96.70;;;;;;4899250;29;20515;-57
2023/12/05 03:37:06;;;;;;;4.43;3.08;;;9.00;96.70;;;;;;4901771;29;20529;-57
2023/12/05 03:39:35;;;;;;;4.13;3.28;;;9.00;96.70;;;;;;4885250;29;20052;-56
2023/12/05 03:42:04;;;;;;;5.32;3.58;;;9.00;96.70;;;;;;4896699;29;20529;-57
2023/12/05 03:44:36;;;;;;;3.50;2.85;;;9.00;96.70;;;;;;4900305;29;20620;-57
2023/12/05 03:47:04;;;;;;;3.95;3.20;;;9.00;96.70;;;;;;4900102;29;20114;-57
2023/12/05 03:49:34;;;;;;;4.85;3.42;;;9.00;96.70;;;;;;4880446;29;20484;-57
2023/12/05 03:52:06;;;;;;;5.82;4.18;;;9.00;96.70;;;;;;4884862;29;20431;-57
2023/12/05 03:54:35;;;;;;;5.75;3.88;;;9.00;96.70;;;;;;4865260;29;20053;-57
2023/12/05 03:57:04;;;;;;;5.63;3.72;;;9.00;96.70;;;;;;4882949;29;20562;-57
2023/12/05 03:59:33;;;;;;;5.88;4.07;;;9.00;96.70;;;;;;4899657;29;20059;-56
2023/12/05 04:02:01;;;;;;;5.85;4.38;;;9.00;96.70;;;;;;4881781;29;20510;-57
2023/12/05 04:04:31;;;;;;;6.82;4.68;;;9.00;96.70;;;;;;4883375;29;20519;-56
2023/12/05 04:07:29;;;;;;;5.43;4.50;;;9.00;96.70;;;;;;4884438;29;20521;-57
2023/12/05 04:10:48;;;;;;;6.38;4.80;;;9.00;96.70;;;;;;4890376;29;20111;-56
2023/12/05 04:13:17;;;;;;;5.63;4.85;;;9.00;96.70;;;;;;4898773;29;20411;-56
2023/12/05 04:15:57;;;;;;;7.20;4.78;;;9.00;96.70;;;;;;4895848;29;20056;-56
2023/12/05 04:18:41;;;;;;;5.88;5.13;;;9.00;96.70;;;;;;4884018;29;20044;-57
2023/12/05 04:21:10;;;;;;;6.20;5.40;;;9.00;96.70;;;;;;4882473;29;20048;-57
2023/12/05 04:23:40;;;;;;;7.75;5.57;;;9.00;96.70;;;;;;4876403;29;20056;-57
2023/12/05 04:26:14;;;;;;;5.80;5.18;;;9.00;96.70;;;;;;4882471;29;20051;-57
2023/12/05 04:28:42;;;;;;;6.07;4.88;;;9.00;96.70;;;;;;4883968;29;20418;-56
2023/12/05 04:31:11;;;;;;;6.88;5.53;;;9.00;96.70;;;;;;4882405;29;20123;-57
2023/12/05 04:33:43;;;;;;;6.35;5.60;;;9.00;96.70;;;;;;4899470;29;20419;-56
2023/12/05 04:36:12;;;;;;;7.50;5.97;;;9.00;96.70;;;;;;4898595;29;20055;-57
2023/12/05 04:38:43;;;;;;;6.60;5.60;;;9.00;96.70;;;;;;4891628;29;20494;-56
2023/12/05 04:41:14;;;;;;;8.77;5.72;;;9.00;96.70;;;;;;4890573;29;20391;-56
2023/12/05 04:43:44;;;;;;;7.18;5.55;;;9.00;96.70;;;;;;4883394;29;20052;-57
2023/12/05 04:46:15;;;;;;;7.57;5.53;;;9.10;96.70;;;;;;4898095;29;20514;-57
2023/12/05 04:48:44;;;;;;;6.35;5.70;;;9.10;96.70;;;;;;4898386;29;20052;-57
2023/12/05 04:51:19;;;;;;;7.47;5.82;;;9.10;96.70;;;;;;4883052;29;20574;-57
2023/12/05 04:53:50;;;;;;;6.05;5.00;;;9.10;96.70;;;;;;4898554;29;20697;-57
2023/12/05 04:56:20;;;;;;;6.72;5.22;;;9.10;96.70;;;;;;4895266;29;20094;-57
2023/12/05 04:59:27;;;;;;;7.32;5.75;;;9.10;96.70;;;;;;4885244;29;20064;-57
2023/12/05 05:01:56;;;;;;;7.18;5.70;;;9.20;96.70;;;;;;4875889;29;20044;-57
2023/12/05 05:04:25;;;;;;;6.53;5.50;;;9.20;96.70;;;;;;4913857;29;20052;-57
2023/12/05 05:06:54;;;;;;;6.90;5.30;;;9.20;96.70;;;;;;4898427;29;20524;-57
2023/12/05 05:09:25;;;;;;;7.82;6.50;;;9.10;96.70;;;;;;4898402;29;20414;-57
2023/12/05 05:12:20;;;;;;;7.78;5.57;;;9.20;96.70;;;;;;4897513;29;20443;-57
2023/12/05 05:14:49;;;;;;;6.07;5.47;;;9.20;96.70;;;;;;4880073;29;20721;-57
2023/12/05 05:17:20;;;;;;;6.60;4.88;;;9.20;96.70;;;;;;4873968;29;20047;-57
2023/12/05 05:19:50;;;;;;;6.13;4.72;;;9.20;96.70;;;;;;4896598;29;20067;-57
2023/12/05 05:22:19;;;;;;;5.72;4.60;;;9.20;96.70;;;;;;4876108;29;20056;-57
2023/12/05 05:24:52;;;;;;;5.38;4.22;;;9.20;96.70;;;;;;4879240;29;20619;-57
2023/12/05 05:27:21;;;;;;;4.68;3.80;;;9.20;96.70;;;;;;4868360;29;20452;-57
2023/12/05 05:29:49;;;;;;;5.30;4.07;;;9.20;96.70;;;;;;4897104;29;20152;-57
2023/12/05 05:32:18;;;;;;;4.82;3.42;;;9.20;96.70;;;;;;4882526;29;20675;-57
2023/12/05 05:34:47;;;;;;;4.07;3.15;;;9.20;96.70;;;;;;4867865;29;20053;-57
2023/12/05 05:37:18;;;;;;;4.18;3.40;;;9.20;96.70;;;;;;4887441;29;20096;-57
2023/12/05 05:39:47;;;;;;;4.78;3.40;;;9.20;96.70;;;;;;4874664;29;20048;-57
2023/12/05 05:42:18;;;;;;;3.80;3.22;;;9.20;96.70;;;;;;4882585;29;20048;-57
2023/12/05 05:44:48;;;;;;;3.08;2.72;;;9.20;96.70;;;;;;4880475;29;20306;-57
2023/12/05 05:47:16;;;;;;;2.88;2.58;;;9.20;96.70;;;;;;4885655;29;20052;-57
2023/12/05 05:49:46;;;;;;;3.17;2.50;;;9.20;96.70;;;;;;4896422;29;20055;-57
2023/12/05 05:52:15;;;;;;;5.45;3.05;;;9.30;96.70;;;;;;4897558;29;20411;-57
2023/12/05 05:55:49;;;;;;;4.32;3.53;;;9.20;96.70;;;;;;4882748;29;20060;-57
2023/12/05 05:58:19;;;;;;;3.15;2.60;;;9.20;96.70;;;;;;4883020;29;20063;-58
2023/12/05 06:00:48;;;;;;;2.88;2.22;;;9.20;96.70;;;;;;4888292;29;20147;-57
2023/12/05 06:03:17;;;;;;;3.95;2.33;;;9.20;96.70;;;;;;4874051;29;20048;-57
2023/12/05 06:05:45;;;;;;;3.00;2.25;;;9.30;96.70;;;;;;4882787;29;20052;-57
2023/12/05 06:08:14;;;;;;;1.95;1.63;;;9.30;96.70;;;;;;4881000;29;20418;-57
2023/12/05 06:10:43;;;;;;;2.50;2.08;;;9.20;96.70;;;;;;4882694;29;20048;-57
2023/12/05 06:13:11;;;;;;;3.20;2.22;;;9.30;96.70;;;;;;4885831;29;20434;-57
2023/12/05 06:15:45;;;;;;;3.13;2.30;;;9.30;96.70;;;;;;4898457;29;20468;-57
2023/12/05 06:18:15;;;;;;;3.58;1.95;;;9.30;96.70;;;;;;4894921;29;20467;-57
2023/12/05 06:20:44;;;;;;;3.17;2.10;;;9.30;96.70;;;;;;4884240;29;20083;-57
2023/12/05 06:23:14;;;;;;;2.92;1.80;;;9.30;96.70;;;;;;4882064;29;20730;-57
2023/12/05 06:25:42;;;;;;;2.50;2.10;;;9.30;96.70;;;;;;4897600;29;20053;-57
2023/12/05 06:28:11;;;;;;;2.42;2.08;;;9.30;96.70;;;;;;4882447;29;20507;-57
2023/12/05 06:30:40;;;;;;;2.78;2.30;;;9.30;96.70;;;;;;4867425;29;20519;-57
2023/12/05 06:33:10;;;;;;;3.45;2.42;;;9.30;96.70;;;;;;4889415;29;20452;-57
2023/12/05 06:35:39;;;;;;;2.33;2.10;;;9.20;96.70;;;;;;4900217;29;20461;-57
2023/12/05 06:38:08;;;;;;;3.00;1.80;;;9.30;96.70;;;;;;4871409;29;20045;-57
2023/12/05 06:40:37;;;;;;;2.75;1.77;;;9.20;96.70;;;;;;4884449;29;20672;-57
2023/12/05 06:43:05;;;;;;;2.67;2.10;;;9.20;96.70;;;;;;4862316;29;20060;-57
2023/12/05 06:45:34;;;;;;;2.40;2.17;;;9.20;96.70;;;;;;4862523;29;20069;-57
2023/12/05 06:48:03;;;;;;;2.20;1.63;;;9.20;96.70;;;;;;4846807;29;20065;-57
2023/12/05 06:50:34;;;;;;;3.50;1.67;;;9.20;96.70;;;;;;4857601;29;20410;-57
2023/12/05 06:53:03;;;;;;;2.55;2.00;;;9.30;96.70;;;;;;4844135;29;20631;-57
2023/12/05 06:55:32;;;;;;;1.63;1.50;;;9.30;96.70;;;;;;4839501;29;20510;-57
2023/12/05 06:58:02;;;;;;;2.00;1.67;;;9.30;96.70;;;;;;4844372;29;20447;-57
2023/12/05 07:00:31;;;;;;;2.47;1.80;;;9.30;96.70;;;;;;4828294;29;20057;-57
2023/12/05 07:02:59;;;;;;;3.55;1.90;;;9.30;96.70;;;;;;4843586;29;20536;-57
2023/12/05 07:05:28;;;;;;;4.43;2.30;;;9.30;96.70;;;;;;4844612;29;20595;-57
2023/12/05 07:08:03;;;;;;;4.82;1.92;;;9.30;96.70;;;;;;4843814;29;20564;-57
2023/12/05 07:10:39;;;;;;;2.83;1.70;;;9.30;96.70;;;;;;4847692;29;20067;-57
2023/12/05 07:13:07;;;;;;;3.60;1.70;;;9.30;96.70;;;;;;4845888;29;20048;-57
2023/12/05 07:15:39;;;;;;;3.83;1.80;;;9.30;96.70;;;;;;4828923;29;20056;-56
2023/12/05 07:18:08;;;;;;;3.90;2.20;;;9.20;96.70;;;;;;4828464;29;20123;-56
2023/12/05 07:20:36;;;;;;;3.50;2.08;;;9.20;96.70;;;;;;4843162;29;20060;-57
2023/12/05 07:23:08;;;;;;;4.15;1.95;;;9.20;96.70;;;;;;4917512;29;20459;-57
2023/12/05 07:25:39;;;;;;;4.10;1.92;;;9.30;96.70;;;;;;4899508;29;20704;-57
2023/12/05 07:28:09;;;;;;;3.28;1.77;;;9.30;96.70;;;;;;4883417;29;20095;-57
2023/12/05 07:30:37;;;;;;;2.53;1.60;;;9.30;96.70;;;;;;4895894;29;20048;-56
2023/12/05 07:33:06;;;;;;;3.55;1.63;;;9.30;96.70;;;;;;4885032;29;20075;-57
2023/12/05 07:35:35;;;;;;;1.58;1.10;;;9.40;96.70;;;;;;4899389;29;20048;-57
2023/12/05 07:38:03;;;;;;;3.05;1.20;;;9.40;96.70;;;;;;4899937;29;20519;-57
2023/12/05 07:40:35;;;;;;;2.88;1.52;;;9.40;96.70;;;;;;4884149;29;20055;-57
2023/12/05 07:43:03;;;;;;;1.40;0.95;;;9.40;96.70;;;;;;4899769;29;20052;-57
2023/12/05 07:45:32;;;;;;;2.15;1.38;;;9.40;96.70;;;;;;4898450;29;20570;-57
2023/12/05 07:48:00;;;;;;;2.33;1.50;;;9.40;96.70;;;;;;4884430;29;20067;-57
2023/12/05 07:50:29;;;;;;;2.30;1.30;;;9.50;96.70;;;;;;4899494;29;20412;-57
2023/12/05 07:52:57;;;;;;;2.22;1.30;;;9.50;96.70;;;;;;4887236;29;20055;-57
2023/12/05 07:55:25;;;;;;;1.48;1.20;;;9.50;96.70;;;;;;4899651;29;20407;-57
2023/12/05 07:57:55;;;;;;;1.50;1.20;;;9.50;96.70;;;;;;4898388;29;20569;-56
2023/12/05 08:00:24;;;;;;;1.67;1.20;;;9.50;96.70;;;;;;4898061;29;20083;-57
2023/12/05 08:02:52;;;;;;;2.20;1.77;;;9.50;96.70;;;;;;4899464;29;20533;-56
2023/12/05 08:05:20;;;;;;;2.40;1.40;;;9.60;96.70;;;;;;4895746;29;20060;-56
2023/12/05 08:07:50;;;;;;;1.85;0.88;;;9.50;96.70;;;;;;4889951;29;20044;-57
2023/12/05 08:10:18;;;;;;;1.63;0.93;;;9.50;96.70;;;;;;4895179;29;20056;-57
2023/12/05 08:12:47;;;;;;;1.52;0.88;;;9.50;96.70;;;;;;4883190;29;20450;-57
2023/12/05 08:15:17;;;;;;;1.55;1.02;;;9.40;96.70;;;;;;4898076;29;20048;-57
2023/12/05 08:17:48;;;;;;;1.13;0.85;;;9.50;96.70;;;;;;4896881;29;20052;-57
2023/12/05 08:20:17;;;;;;;3.58;0.70;;;9.40;96.70;;;;;;4880121;29;20578;-57
2023/12/05 08:22:45;;;;;;;1.65;0.55;;;9.40;96.70;;;;;;4878830;29;20503;-57
2023/12/05 08:25:13;;;;;;;1.25;0.57;;;9.40;96.70;;;;;;4867410;29;20412;-57
2023/12/05 08:27:43;;;;;;;1.30;0.50;;;9.40;96.70;;;;;;4885857;29;20053;-57
2023/12/05 08:30:13;;;;;;;0.55;0.50;;;9.40;96.70;;;;;;4880998;29;20092;-56
2023/12/05 08:32:43;;;;;;;0.60;0.40;;;9.40;96.70;;;;;;4874416;29;20147;-57
2023/12/05 08:35:12;;;;;;;2.30;0.70;;;9.30;96.70;;;;;;4915447;29;20395;-56
2023/12/05 08:37:41;;;;;;;1.67;0.57;;;9.40;96.70;;;;;;4864783;29;20530;-56
2023/12/05 08:40:11;;;;;;;3.28;1.90;;;9.30;96.70;;;;;;4895372;29;20147;-57
2023/12/05 08:43:10;;;;;;;2.20;1.02;;;9.30;96.70;;;;;;4900034;29;20580;-57
2023/12/05 08:45:39;;;;;;;2.40;1.00;;;9.30;96.70;;;;;;4883535;29;20063;-56
2023/12/05 08:48:09;;;;;;;0.90;0.55;;;9.30;96.70;;;;;;4879988;29;20076;-57
2023/12/05 08:50:39;;;;;;;1.35;0.70;;;9.30;96.70;;;;;;4886017;29;20054;-57
2023/12/05 08:53:08;;;;;;;1.15;0.73;;;9.30;96.70;;;;;;4883319;29;20506;-57
2023/12/05 08:55:39;;;;;;;2.95;0.63;;;9.30;96.70;;;;;;4897520;29;20499;-56
2023/12/05 08:58:08;;;;;;;1.65;0.57;;;9.30;96.70;;;;;;4887579;29;20067;-57
2023/12/05 09:00:39;;;;;;;1.25;0.80;;;9.40;96.70;;;;;;4883113;29;20082;-57
2023/12/05 09:03:12;;;;;;;1.27;0.70;;;9.40;96.70;;;;;;4879317;29;20100;-57
2023/12/05 09:05:40;;;;;;;1.35;0.80;;;9.40;96.70;;;;;;4879709;29;20175;-57
2023/12/05 09:08:11;;;;;;;1.17;0.80;;;9.50;96.70;;;;;;4895014;29;20464;-57
2023/12/05 09:10:40;;;;;;;2.03;0.90;;;9.40;96.70;;;;;;4868575;29;20828;-57
2023/12/05 09:13:09;;;;;;;1.30;0.80;;;9.40;96.70;;;;;;4897990;29;20684;-57
2023/12/05 09:15:38;;;;;;;1.67;0.70;;;9.40;96.70;;;;;;4898423;29;20052;-57
2023/12/05 09:18:09;;;;;;;1.65;1.02;;;9.40;96.70;;;;;;4882920;29;20746;-57
2023/12/05 09:20:41;;;;;;;1.58;0.80;;;9.40;96.70;;;;;;4881253;29;20064;-56
2023/12/05 09:23:11;;;;;;;1.85;0.93;;;9.40;96.70;;;;;;4881917;29;20503;-56
2023/12/05 09:25:40;;;;;;;1.10;0.60;;;9.40;96.70;;;;;;4882088;29;20060;-57
2023/12/05 09:28:10;;;;;;;1.02;0.60;;;9.40;96.70;;;;;;4914438;29;20462;-57
2023/12/05 09:30:38;;;;;;;1.70;0.70;;;9.50;96.70;;;;;;4897989;29;20062;-56
2023/12/05 09:33:07;;;;;;;2.38;0.88;;;9.50;96.70;;;;;;4881147;29;20048;-57
2023/12/05 09:35:36;;;;;;;2.15;0.95;;;9.50;96.70;;;;;;4891506;29;20049;-57
2023/12/05 09:38:07;;;;;;;1.83;0.90;;;9.50;96.70;;;;;;4880374;29;20052;-57
2023/12/05 09:40:36;;;;;;;1.25;0.60;;;9.40;96.70;;;;;;4898100;29;20048;-57
2023/12/05 09:43:08;;;;;;;3.33;2.17;;;9.20;96.70;;;;;;4895678;29;20507;-57
2023/12/05 09:45:42;;;;;;;1.75;1.05;;;9.20;96.70;;;;;;4894851;29;20582;-57
2023/12/05 09:48:13;;;;;;;1.98;1.17;;;9.30;96.70;;;;;;4864199;29;20100;-57
2023/12/05 09:50:42;;;;;;;1.10;0.85;;;9.20;96.70;;;;;;4912419;29;20059;-57
2023/12/05 09:53:14;;;;;;;1.90;0.77;;;9.20;96.70;;;;;;4879967;29;20036;-57
2023/12/05 09:55:45;;;;;;;1.45;0.82;;;9.20;96.70;;;;;;4897154;29;20064;-59
2023/12/05 09:58:15;;;;;;;2.33;0.82;;;9.10;96.70;;;;;;4886762;29;20456;-57
2023/12/05 10:00:45;;;;;;;1.40;0.85;;;9.20;96.70;;;;;;4893355;29;20060;-56
2023/12/05 10:03:16;;;;;;;3.08;1.15;;;9.30;96.70;;;;;;4876553;29;20585;-57
2023/12/05 10:05:48;;;;;;;5.20;2.38;;;9.40;96.70;;;;;;4877967;29;20056;-57
2023/12/05 10:08:20;;;;;;;3.22;1.90;;;9.40;96.70;;;;;;4872574;29;20056;-57
2023/12/05 10:10:50;;;;;;;5.50;3.65;;;9.40;96.70;;;;;;4897459;29;20084;-56
2023/12/05 10:13:22;;;;;;;4.40;1.70;;;9.40;96.70;;;;;;4882896;29;20516;-56
2023/12/05 10:16:02;;;;;;;3.63;1.40;;;9.40;96.70;;;;;;4880639;29;20056;-57
2023/12/05 10:18:32;;;;;;;2.95;1.80;;;9.40;96.70;;;;;;4863676;29;20423;-56
2023/12/05 10:21:01;;;;;;;6.63;1.38;;;9.40;96.70;;;;;;4893262;29;20060;-57
2023/12/05 10:23:33;;;;;;;4.97;2.60;;;9.40;96.70;;;;;;4881541;29;20526;-57
2023/12/05 10:26:03;;;;;;;3.83;1.90;;;9.50;96.70;;;;;;4893272;29;20476;-57
2023/12/05 10:28:32;;;;;;;2.88;1.73;;;9.50;96.70;;;;;;4868577;29;20511;-57
2023/12/05 10:31:14;;;;;;;1.98;1.40;;;9.60;96.70;;;;;;4896802;29;20517;-56
2023/12/05 10:33:42;;;;;;;2.75;1.30;;;9.70;96.70;;;;;;4897999;29;20128;-56
2023/12/05 10:36:12;;;;;;;3.22;1.80;;;9.70;96.70;;;;;;4878365;29;20602;-57
2023/12/05 10:38:48;;;;;;;3.13;1.80;;;9.80;96.70;;;;;;4884870;29;20059;-57
2023/12/05 10:41:23;;;;;;;3.00;1.77;;;9.80;96.70;;;;;;4889517;29;20589;-57
2023/12/05 10:44:09;;;;;;;2.53;1.55;;;9.80;96.70;;;;;;4889647;29;20416;-56
2023/12/05 10:46:42;;;;;;;2.58;2.05;;;9.80;96.70;;;;;;4866117;29;20575;-56
2023/12/05 10:49:13;;;;;;;2.40;2.00;;;9.90;96.70;;;;;;4882546;29;20135;-57
2023/12/05 10:51:43;;;;;;;2.25;1.40;;;10.00;96.70;;;;;;4885051;29;20655;-56
2023/12/05 10:54:20;;;;;;;3.05;1.30;;;10.10;96.70;;;;;;4882019;29;20526;-56
2023/12/05 10:57:19;;;;;;;;;;;;;;;;;;;;;
2023/12/05 10:59:51;;;;;;;2.63;1.70;;;10.10;96.70;;;;;;4895680;29;20416;-56
2023/12/05 11:02:31;;;;;;;4.18;2.65;;;10.20;96.70;;;;;;4883477;29;20052;-57
2023/12/05 11:05:06;;;;;;;4.95;3.50;;;10.40;96.70;;;;;;4866697;29;20053;-57
2023/12/05 11:08:00;;;;;;;4.00;3.08;;;10.50;96.70;;;;;;4881684;29;20049;-57
2023/12/05 11:10:31;;;;;;;2.65;1.80;;;10.50;96.70;;;;;;4885737;29;20071;-57
2023/12/05 11:13:02;;;;;;;3.83;2.70;;;10.50;96.70;;;;;;4881997;29;20059;-57
2023/12/05 11:15:37;;;;;;;4.00;2.20;;;10.50;96.70;;;;;;4884846;29;20822;-57
2023/12/05 11:18:15;;;;;;;3.67;2.33;;;10.60;96.70;;;;;;4881863;29;20075;-57
2023/12/05 11:21:00;;;;;;;4.75;2.60;;;10.70;96.70;;;;;;4878393;29;20403;-57
2023/12/05 11:24:04;;;;;;;3.40;2.20;;;10.70;96.70;;;;;;4897348;29;20629;-57
2023/12/05 11:26:53;;;;;;;3.67;2.10;;;10.90;96.70;;;;;;4861219;29;20083;-56
2023/12/05 11:29:42;;;;;;;2.80;1.75;;;11.30;96.70;;;;;;4881716;29;20052;-57
2023/12/05 11:32:17;;;;;;;2.17;1.58;;;11.20;96.70;;;;;;4890037;29;20052;-57
2023/12/05 11:35:03;;;;;;;2.75;1.75;;;11.20;96.70;;;;;;4870397;29;20471;-57
2023/12/05 11:37:50;;;;;;;6.35;5.22;;;11.20;96.70;;;;;;4896681;29;20056;-56
2023/12/05 11:40:22;;;;;;;3.60;3.15;;;11.30;96.70;;;;;;4883217;29;20136;-57
2023/12/05 11:43:17;;;;;;;2.45;2.13;;;11.30;96.70;;;;;;4866183;29;20061;-57
2023/12/05 11:45:45;;;;;;;2.10;1.40;;;11.40;96.70;;;;;;4876788;29;20418;-57
2023/12/05 11:48:23;;;;;;;2.47;1.75;;;11.50;96.70;;;;;;4879120;29;20048;-56
2023/12/05 11:50:53;;;;;;;2.47;1.70;;;11.80;96.70;;;;;;4879031;29;20052;-57
2023/12/05 11:53:22;;;;;;;2.83;1.52;;;12.00;96.70;;;;;;4898996;29;20063;-57
2023/12/05 11:55:50;;;;;;;2.15;1.80;;;12.10;96.70;;;;;;4883266;29;20419;-57
2023/12/05 11:58:30;;;;;;;2.50;1.83;;;12.00;96.70;;;;;;4884581;29;20516;-57
2023/12/05 12:01:04;;;;;;;3.40;2.75;;;11.80;96.70;;;;;;4871583;29;20059;-57
2023/12/05 12:03:48;;;;;;;1.73;1.63;;;11.60;96.70;;;;;;4897735;29;20407;-57
2023/12/05 12:06:18;;;;;;;2.33;1.63;;;11.50;96.70;;;;;;4883820;29;20483;-57
2023/12/05 12:08:50;;;;;;;4.63;2.00;;;11.40;96.70;;;;;;4899344;29;20048;-57
2023/12/05 12:11:20;;;;;;;3.47;2.35;;;11.40;96.70;;;;;;4899693;29;20064;-57
2023/12/05 12:13:55;;;;;;;2.20;1.73;;;11.30;96.70;;;;;;4873875;29;20072;-57
2023/12/05 12:16:24;;;;;;;2.83;2.42;;;11.20;96.70;;;;;;4891125;29;20056;-57
2023/12/05 12:18:53;;;;;;;4.10;3.10;;;11.20;96.70;;;;;;4894618;29;20527;-56
2023/12/05 12:21:29;;;;;;;3.42;2.50;;;11.30;96.70;;;;;;4882620;29;20056;-57
2023/12/05 12:23:59;;;;;;;4.95;2.25;;;11.30;96.70;;;;;;4884017;29;20057;-57
2023/12/05 12:26:32;;;;;;;3.72;2.65;;;11.30;96.70;;;;;;4880100;29;20099;-57
2023/12/05 12:29:10;;;;;;;2.72;2.45;;;11.20;96.70;;;;;;4876223;29;20530;-56
2023/12/05 12:31:40;;;;;;;2.35;1.98;;;11.30;96.70;;;;;;4879850;29;20115;-57
2023/12/05 12:34:19;;;;;;;3.25;2.35;;;11.20;96.70;;;;;;4883151;29;20780;-57
2023/12/05 12:36:48;;;;;;;2.72;1.80;;;11.20;96.70;;;;;;4866439;29;20534;-57
2023/12/05 12:39:22;;;;;;;4.40;2.92;;;11.00;96.70;;;;;;4884105;29;20439;-57
2023/12/05 12:41:51;;;;;;;3.40;2.28;;;10.90;96.70;;;;;;4883612;29;20063;-57
2023/12/05 12:44:26;;;;;;;3.45;2.30;;;10.90;96.70;;;;;;4881938;29;20063;-57
2023/12/05 12:46:56;;;;;;;3.25;1.70;;;10.80;96.70;;;;;;4892454;29;20048;-57
2023/12/05 12:50:14;;;;;;;2.33;1.50;;;10.70;96.70;;;;;;4915484;29;20434;-56
2023/12/05 12:52:44;;;;;;;2.13;1.27;;;10.80;96.70;;;;;;4873587;29;20147;-57
2023/12/05 12:55:17;;;;;;;2.08;1.50;;;10.90;96.70;;;;;;4879924;29;20503;-57
2023/12/05 12:57:53;;;;;;;1.20;0.98;;;10.90;96.70;;;;;;4883750;29;20546;-57
2023/12/05 13:00:23;;;;;;;2.28;1.27;;;10.90;96.70;;;;;;4894716;29;20515;-57
2023/12/05 13:03:05;;;;;;;2.90;1.00;;;10.90;96.70;;;;;;4898693;29;20067;-57
2023/12/05 13:05:36;;;;;;;2.45;1.70;;;10.90;96.70;;;;;;4882695;29;20705;-57
2023/12/05 13:08:07;;;;;;;2.33;1.50;;;10.90;96.70;;;;;;4879501;29;20044;-56
2023/12/05 13:10:37;;;;;;;2.20;1.40;;;11.00;96.70;;;;;;4896298;29;20403;-57
2023/12/05 13:13:07;;;;;;;5.30;1.48;;;11.10;96.70;;;;;;4882912;29;20483;-57
2023/12/05 13:15:38;;;;;;;3.88;2.75;;;11.10;96.70;;;;;;4882655;29;20467;-57
2023/12/05 13:18:07;;;;;;;3.22;2.55;;;11.30;96.70;;;;;;4908831;29;20062;-57
2023/12/05 13:20:55;;;;;;;2.22;1.88;;;11.40;96.70;;;;;;4879772;29;20064;-57